BGCO2: Big Cabin Creek, Big Cabin, OK

Data processed at Mon Apr 24 2017 21:39


All information presented herein is the property of the government of the United States of America and may be revised or deleted at any time without prior notice.
Dissemination of this information without the expressed written consent of the Public Affairs Office, Tulsa District U.S. Army Corps of Engineers is strictly prohibited.
These data are gathered electronically and, as presented, have not undergone any form of quality control. These data are not guaranteed to be valid or correct.
Go to home page.
Go to station list.
Go to station map.

Downstream station:


Previous Day
Next Day
Current Day
    
SHEF ID:       BGCO2     Big Cabin Creek near Big Cabin,
STATION TYPE:  

               PRECIP     STAGE  STAGE(2)  RIV-FLOW  BAT-LOAD
                   in        ft        ft       cfs      volt
              Ccp-Rev   Ccp-Rev   Ccp-Rev   Ccp-Rev   Ccp-Rev
(US/Central)
04/24 00:00      0.00     15.73     15.74       946     12.65
04/24 01:00      0.00     15.66     15.65       910     12.65
04/24 02:00      0.00     15.58     15.59      ----     12.65
04/24 03:00      0.00     15.49     15.52       821     12.65
04/24 04:00      0.00     15.42     15.46       785     12.65
04/24 05:00      0.00     15.36     15.38       751     12.65
04/24 06:00      0.00     15.30     15.30       721     12.57
04/24 07:00      0.00     15.24     15.27       689     12.57
04/24 08:00      0.00     15.19     15.19       664     12.65
04/24 09:00      0.00     15.12     15.14       627     13.37
04/24 10:00      0.00     15.07     15.07       604     13.44
04/24 11:00      0.00     15.03     15.04       585     13.44
04/24 12:00      0.00     14.99     14.96       567     13.44
04/24 13:00      0.00     14.94     14.92       545     13.53
04/24 14:00      0.00     14.89     14.87       524     13.53
04/24 15:00      0.00     14.84     14.84       501     13.29
04/24 16:00      0.00     14.80     14.79       487     13.37
04/24 17:00      0.00     14.77     14.76       473     13.21
04/24 18:00      0.00     14.73     14.70       456     12.89
04/24 19:00      0.00     14.71     14.72       447     12.81
04/24 20:00      0.00     14.67     14.65       433     12.73
04/24 21:00      ----      ----      ----      ----      ----
04/24 22:00      ----      ----      ----      ----      ----
04/24 23:00      ----      ----      ----      ----      ----